sensor_id;sensor_type;location;lat;lon;timestamp;temperature;humidity
62555;DHT22;48610;52.144;8.624;2023-09-08T00:00:57;17.60;99.90
62555;DHT22;48610;52.144;8.624;2023-09-08T00:03:58;17.70;99.90
62555;DHT22;48610;52.144;8.624;2023-09-08T00:06:59;17.60;99.90
62555;DHT22;48610;52.144;8.624;2023-09-08T00:09:59;17.60;99.90
62555;DHT22;48610;52.144;8.624;2023-09-08T00:13:00;17.40;99.90
62555;DHT22;48610;52.144;8.624;2023-09-08T00:16:00;17.40;99.90
62555;DHT22;48610;52.144;8.624;2023-09-08T00:19:01;17.30;99.90
62555;DHT22;48610;52.144;8.624;2023-09-08T00:22:03;17.40;99.90
62555;DHT22;48610;52.144;8.624;2023-09-08T00:25:06;17.40;99.90
62555;DHT22;48610;52.144;8.624;2023-09-08T00:28:07;17.40;99.90
62555;DHT22;48610;52.144;8.624;2023-09-08T00:31:07;17.50;99.90
62555;DHT22;48610;52.144;8.624;2023-09-08T00:34:08;17.50;99.90
62555;DHT22;48610;52.144;8.624;2023-09-08T00:37:08;17.40;99.90
62555;DHT22;48610;52.144;8.624;2023-09-08T00:40:10;17.50;99.90
62555;DHT22;48610;52.144;8.624;2023-09-08T00:43:11;17.60;99.90
62555;DHT22;48610;52.144;8.624;2023-09-08T00:46:11;17.60;99.90
62555;DHT22;48610;52.144;8.624;2023-09-08T00:49:12;17.60;99.90
62555;DHT22;48610;52.144;8.624;2023-09-08T00:52:13;17.50;99.90
62555;DHT22;48610;52.144;8.624;2023-09-08T00:55:14;17.40;99.90
62555;DHT22;48610;52.144;8.624;2023-09-08T00:58:15;17.40;99.90
62555;DHT22;48610;52.144;8.624;2023-09-08T01:01:15;17.30;99.90
62555;DHT22;48610;52.144;8.624;2023-09-08T01:04:17;17.20;99.90
62555;DHT22;48610;52.144;8.624;2023-09-08T01:07:19;17.20;99.90
62555;DHT22;48610;52.144;8.624;2023-09-08T01:10:20;17.40;99.90
62555;DHT22;48610;52.144;8.624;2023-09-08T01:13:21;17.30;99.90
62555;DHT22;48610;52.144;8.624;2023-09-08T01:16:22;17.20;99.90
62555;DHT22;48610;52.144;8.624;2023-09-08T01:19:22;17.20;99.90
62555;DHT22;48610;52.144;8.624;2023-09-08T01:25:36;17.20;99.90
62555;DHT22;48610;52.144;8.624;2023-09-08T01:28:40;17.20;99.90
62555;DHT22;48610;52.144;8.624;2023-09-08T01:31:41;17.10;99.90
62555;DHT22;48610;52.144;8.624;2023-09-08T01:34:42;17.00;99.90
62555;DHT22;48610;52.144;8.624;2023-09-08T01:37:47;16.90;99.90
62555;DHT22;48610;52.144;8.624;2023-09-08T01:40:48;16.80;99.90
62555;DHT22;48610;52.144;8.624;2023-09-08T01:43:48;16.80;99.90
62555;DHT22;48610;52.144;8.624;2023-09-08T01:46:49;16.80;99.90
62555;DHT22;48610;52.144;8.624;2023-09-08T01:49:51;16.80;99.90
62555;DHT22;48610;52.144;8.624;2023-09-08T01:52:52;16.80;99.90
62555;DHT22;48610;52.144;8.624;2023-09-08T01:55:52;16.90;99.90
62555;DHT22;48610;52.144;8.624;2023-09-08T01:58:53;17.00;99.90
62555;DHT22;48610;52.144;8.624;2023-09-08T02:01:53;16.90;99.90
62555;DHT22;48610;52.144;8.624;2023-09-08T02:04:54;16.90;99.90
62555;DHT22;48610;52.144;8.624;2023-09-08T02:07:55;17.00;99.90
62555;DHT22;48610;52.144;8.624;2023-09-08T02:10:57;16.70;99.90
62555;DHT22;48610;52.144;8.624;2023-09-08T02:13:57;16.60;99.90
62555;DHT22;48610;52.144;8.624;2023-09-08T02:16:58;16.60;99.90
62555;DHT22;48610;52.144;8.624;2023-09-08T02:19:58;16.70;99.90
62555;DHT22;48610;52.144;8.624;2023-09-08T02:23:05;16.80;99.90
62555;DHT22;48610;52.144;8.624;2023-09-08T02:26:06;16.70;99.90
62555;DHT22;48610;52.144;8.624;2023-09-08T02:29:06;16.60;99.90
62555;DHT22;48610;52.144;8.624;2023-09-08T02:32:07;16.50;99.90
62555;DHT22;48610;52.144;8.624;2023-09-08T02:35:08;16.20;99.90
62555;DHT22;48610;52.144;8.624;2023-09-08T02:38:08;16.20;99.90
62555;DHT22;48610;52.144;8.624;2023-09-08T02:41:09;16.30;99.90
62555;DHT22;48610;52.144;8.624;2023-09-08T02:44:10;16.40;99.90
62555;DHT22;48610;52.144;8.624;2023-09-08T02:47:10;16.20;99.90
62555;DHT22;48610;52.144;8.624;2023-09-08T02:50:11;16.30;99.90
62555;DHT22;48610;52.144;8.624;2023-09-08T02:53:12;16.10;99.90
62555;DHT22;48610;52.144;8.624;2023-09-08T02:56:13;16.10;99.90
62555;DHT22;48610;52.144;8.624;2023-09-08T02:59:13;15.90;99.90
62555;DHT22;48610;52.144;8.624;2023-09-08T03:02:14;15.70;99.90
62555;DHT22;48610;52.144;8.624;2023-09-08T03:05:15;15.30;99.90
62555;DHT22;48610;52.144;8.624;2023-09-08T03:08:15;15.50;99.90
62555;DHT22;48610;52.144;8.624;2023-09-08T03:11:16;15.60;99.90
62555;DHT22;48610;52.144;8.624;2023-09-08T03:14:16;15.50;99.90
62555;DHT22;48610;52.144;8.624;2023-09-08T03:17:17;15.60;99.90
62555;DHT22;48610;52.144;8.624;2023-09-08T03:20:18;15.40;99.90
62555;DHT22;48610;52.144;8.624;2023-09-08T03:23:19;15.60;99.90
62555;DHT22;48610;52.144;8.624;2023-09-08T03:26:19;15.60;99.90
62555;DHT22;48610;52.144;8.624;2023-09-08T03:29:20;15.60;99.90
62555;DHT22;48610;52.144;8.624;2023-09-08T03:32:20;15.80;99.90
62555;DHT22;48610;52.144;8.624;2023-09-08T03:35:21;15.90;99.90
62555;DHT22;48610;52.144;8.624;2023-09-08T03:38:22;15.90;99.90
62555;DHT22;48610;52.144;8.624;2023-09-08T03:41:23;15.90;99.90
62555;DHT22;48610;52.144;8.624;2023-09-08T03:44:23;15.80;99.90
62555;DHT22;48610;52.144;8.624;2023-09-08T03:47:24;15.90;99.90
62555;DHT22;48610;52.144;8.624;2023-09-08T03:50:24;15.90;99.90
62555;DHT22;48610;52.144;8.624;2023-09-08T03:53:25;15.90;99.90
62555;DHT22;48610;52.144;8.624;2023-09-08T03:56:26;15.90;99.90
62555;DHT22;48610;52.144;8.624;2023-09-08T03:59:27;15.90;99.90
62555;DHT22;48610;52.144;8.624;2023-09-08T04:02:27;15.80;99.90
62555;DHT22;48610;52.144;8.624;2023-09-08T04:05:28;15.70;99.90
62555;DHT22;48610;52.144;8.624;2023-09-08T04:08:28;15.70;99.90
62555;DHT22;48610;52.144;8.624;2023-09-08T04:11:29;15.70;99.90
62555;DHT22;48610;52.144;8.624;2023-09-08T04:14:29;15.70;99.90
62555;DHT22;48610;52.144;8.624;2023-09-08T04:17:30;15.70;99.90
62555;DHT22;48610;52.144;8.624;2023-09-08T04:20:31;15.80;99.90
62555;DHT22;48610;52.144;8.624;2023-09-08T04:23:31;15.60;99.90
62555;DHT22;48610;52.144;8.624;2023-09-08T04:26:32;15.60;99.90
62555;DHT22;48610;52.144;8.624;2023-09-08T04:29:33;15.40;99.90
62555;DHT22;48610;52.144;8.624;2023-09-08T04:32:33;15.40;99.90
62555;DHT22;48610;52.144;8.624;2023-09-08T04:35:34;15.40;99.90
62555;DHT22;48610;52.144;8.624;2023-09-08T04:38:34;15.40;99.90
62555;DHT22;48610;52.144;8.624;2023-09-08T04:41:35;15.60;99.90
62555;DHT22;48610;52.144;8.624;2023-09-08T04:44:35;15.70;99.90
62555;DHT22;48610;52.144;8.624;2023-09-08T04:47:36;15.90;99.90
62555;DHT22;48610;52.144;8.624;2023-09-08T04:50:37;15.90;99.90
62555;DHT22;48610;52.144;8.624;2023-09-08T04:53:38;16.00;99.90
62555;DHT22;48610;52.144;8.624;2023-09-08T04:56:39;16.00;99.90
62555;DHT22;48610;52.144;8.624;2023-09-08T04:59:40;16.10;99.90
62555;DHT22;48610;52.144;8.624;2023-09-08T05:02:41;16.20;99.90
62555;DHT22;48610;52.144;8.624;2023-09-08T05:05:42;16.30;99.90
62555;DHT22;48610;52.144;8.624;2023-09-08T05:08:42;16.20;99.90
62555;DHT22;48610;52.144;8.624;2023-09-08T05:11:44;16.30;99.90
62555;DHT22;48610;52.144;8.624;2023-09-08T05:14:44;16.30;99.90
62555;DHT22;48610;52.144;8.624;2023-09-08T05:17:45;16.40;99.90
62555;DHT22;48610;52.144;8.624;2023-09-08T05:20:47;16.50;99.90
62555;DHT22;48610;52.144;8.624;2023-09-08T05:23:48;16.60;99.90
62555;DHT22;48610;52.144;8.624;2023-09-08T05:26:48;16.60;99.90
62555;DHT22;48610;52.144;8.624;2023-09-08T05:29:49;16.70;99.90
62555;DHT22;48610;52.144;8.624;2023-09-08T05:32:50;16.80;99.90
62555;DHT22;48610;52.144;8.624;2023-09-08T05:35:50;16.90;99.90
62555;DHT22;48610;52.144;8.624;2023-09-08T05:38:51;17.00;99.90
62555;DHT22;48610;52.144;8.624;2023-09-08T05:41:51;17.00;99.90
62555;DHT22;48610;52.144;8.624;2023-09-08T05:44:52;17.10;99.90
62555;DHT22;48610;52.144;8.624;2023-09-08T05:47:55;17.10;99.90
62555;DHT22;48610;52.144;8.624;2023-09-08T05:50:55;17.10;99.90
62555;DHT22;48610;52.144;8.624;2023-09-08T05:53:56;17.10;99.90
62555;DHT22;48610;52.144;8.624;2023-09-08T05:56:56;17.20;99.90
62555;DHT22;48610;52.144;8.624;2023-09-08T05:59:57;17.30;99.90
62555;DHT22;48610;52.144;8.624;2023-09-08T06:02:58;17.30;99.90
62555;DHT22;48610;52.144;8.624;2023-09-08T06:05:58;17.50;99.90
62555;DHT22;48610;52.144;8.624;2023-09-08T06:08:59;17.50;99.90
62555;DHT22;48610;52.144;8.624;2023-09-08T06:11:59;17.60;99.90
62555;DHT22;48610;52.144;8.624;2023-09-08T06:15:04;17.70;99.90
62555;DHT22;48610;52.144;8.624;2023-09-08T06:18:05;17.80;99.90
62555;DHT22;48610;52.144;8.624;2023-09-08T06:21:07;17.90;99.90
62555;DHT22;48610;52.144;8.624;2023-09-08T06:24:08;17.90;99.90
62555;DHT22;48610;52.144;8.624;2023-09-08T06:27:08;18.00;99.90
62555;DHT22;48610;52.144;8.624;2023-09-08T06:30:09;18.20;99.90
62555;DHT22;48610;52.144;8.624;2023-09-08T06:33:10;18.20;99.90
62555;DHT22;48610;52.144;8.624;2023-09-08T06:36:11;18.30;99.90
62555;DHT22;48610;52.144;8.624;2023-09-08T06:39:11;18.50;99.90
62555;DHT22;48610;52.144;8.624;2023-09-08T06:42:13;18.70;99.90
62555;DHT22;48610;52.144;8.624;2023-09-08T06:45:13;18.70;99.90
62555;DHT22;48610;52.144;8.624;2023-09-08T06:48:15;18.80;99.90
62555;DHT22;48610;52.144;8.624;2023-09-08T06:51:16;18.90;99.90
62555;DHT22;48610;52.144;8.624;2023-09-08T06:54:17;19.00;99.90
62555;DHT22;48610;52.144;8.624;2023-09-08T06:57:18;19.20;99.90
62555;DHT22;48610;52.144;8.624;2023-09-08T07:00:22;19.30;99.90
62555;DHT22;48610;52.144;8.624;2023-09-08T07:03:22;19.50;99.90
62555;DHT22;48610;52.144;8.624;2023-09-08T07:06:23;19.60;99.90
62555;DHT22;48610;52.144;8.624;2023-09-08T07:09:23;19.60;99.90
62555;DHT22;48610;52.144;8.624;2023-09-08T07:12:24;19.80;99.90
62555;DHT22;48610;52.144;8.624;2023-09-08T07:15:25;20.00;99.90
62555;DHT22;48610;52.144;8.624;2023-09-08T07:18:25;20.20;99.90
62555;DHT22;48610;52.144;8.624;2023-09-08T07:21:26;20.50;99.90
62555;DHT22;48610;52.144;8.624;2023-09-08T07:24:27;21.00;99.90
62555;DHT22;48610;52.144;8.624;2023-09-08T07:27:27;21.20;99.90
62555;DHT22;48610;52.144;8.624;2023-09-08T07:30:28;21.20;99.90
62555;DHT22;48610;52.144;8.624;2023-09-08T07:33:29;21.30;99.90
62555;DHT22;48610;52.144;8.624;2023-09-08T07:36:30;21.60;99.90
62555;DHT22;48610;52.144;8.624;2023-09-08T07:39:30;21.80;99.90
62555;DHT22;48610;52.144;8.624;2023-09-08T07:42:32;21.70;99.90
62555;DHT22;48610;52.144;8.624;2023-09-08T07:45:32;21.80;99.90
62555;DHT22;48610;52.144;8.624;2023-09-08T07:48:33;22.00;99.90
62555;DHT22;48610;52.144;8.624;2023-09-08T07:51:34;22.00;99.90
62555;DHT22;48610;52.144;8.624;2023-09-08T07:54:35;22.10;99.90
62555;DHT22;48610;52.144;8.624;2023-09-08T07:57:35;22.00;99.90
62555;DHT22;48610;52.144;8.624;2023-09-08T08:00:36;22.00;99.90
62555;DHT22;48610;52.144;8.624;2023-09-08T08:03:37;22.30;99.90
62555;DHT22;48610;52.144;8.624;2023-09-08T08:06:38;22.40;99.90
62555;DHT22;48610;52.144;8.624;2023-09-08T08:09:38;22.50;99.90
62555;DHT22;48610;52.144;8.624;2023-09-08T08:12:41;22.70;99.90
62555;DHT22;48610;52.144;8.624;2023-09-08T08:15:42;22.70;99.90
62555;DHT22;48610;52.144;8.624;2023-09-08T08:18:43;22.90;99.90
62555;DHT22;48610;52.144;8.624;2023-09-08T08:21:43;23.00;99.90
62555;DHT22;48610;52.144;8.624;2023-09-08T08:24:44;23.00;99.90
62555;DHT22;48610;52.144;8.624;2023-09-08T08:27:45;22.90;99.90
62555;DHT22;48610;52.144;8.624;2023-09-08T08:30:45;22.90;99.90
62555;DHT22;48610;52.144;8.624;2023-09-08T08:33:47;23.00;99.90
62555;DHT22;48610;52.144;8.624;2023-09-08T08:36:48;23.00;99.90
62555;DHT22;48610;52.144;8.624;2023-09-08T08:39:49;23.20;99.90
62555;DHT22;48610;52.144;8.624;2023-09-08T08:42:54;23.30;99.90
62555;DHT22;48610;52.144;8.624;2023-09-08T08:45:57;23.40;99.90
62555;DHT22;48610;52.144;8.624;2023-09-08T08:49:00;23.50;99.90
62555;DHT22;48610;52.144;8.624;2023-09-08T08:52:01;23.50;99.90
62555;DHT22;48610;52.144;8.624;2023-09-08T08:55:07;23.50;99.90
62555;DHT22;48610;52.144;8.624;2023-09-08T08:58:08;23.50;99.90
62555;DHT22;48610;52.144;8.624;2023-09-08T09:01:11;23.80;99.90
62555;DHT22;48610;52.144;8.624;2023-09-08T09:04:12;23.80;99.90
62555;DHT22;48610;52.144;8.624;2023-09-08T09:07:13;23.80;99.90
62555;DHT22;48610;52.144;8.624;2023-09-08T09:10:14;23.90;99.90
62555;DHT22;48610;52.144;8.624;2023-09-08T09:13:15;24.10;99.90
62555;DHT22;48610;52.144;8.624;2023-09-08T09:16:15;24.00;99.90
62555;DHT22;48610;52.144;8.624;2023-09-08T09:19:21;24.20;99.90
62555;DHT22;48610;52.144;8.624;2023-09-08T09:22:36;24.30;99.90
62555;DHT22;48610;52.144;8.624;2023-09-08T09:25:37;24.40;99.90
62555;DHT22;48610;52.144;8.624;2023-09-08T09:28:47;24.50;99.90
62555;DHT22;48610;52.144;8.624;2023-09-08T09:31:56;24.70;99.90
62555;DHT22;48610;52.144;8.624;2023-09-08T09:34:58;24.60;99.90
62555;DHT22;48610;52.144;8.624;2023-09-08T09:38:02;24.80;99.90
62555;DHT22;48610;52.144;8.624;2023-09-08T09:41:03;24.80;99.90
62555;DHT22;48610;52.144;8.624;2023-09-08T09:44:04;25.00;99.90
62555;DHT22;48610;52.144;8.624;2023-09-08T09:47:05;25.10;99.90
62555;DHT22;48610;52.144;8.624;2023-09-08T09:50:07;25.20;99.90
62555;DHT22;48610;52.144;8.624;2023-09-08T09:53:15;25.30;99.90
62555;DHT22;48610;52.144;8.624;2023-09-08T09:56:20;25.40;99.90
62555;DHT22;48610;52.144;8.624;2023-09-08T09:59:22;25.60;99.90
62555;DHT22;48610;52.144;8.624;2023-09-08T10:02:24;25.80;99.90
62555;DHT22;48610;52.144;8.624;2023-09-08T10:05:26;25.70;99.90
62555;DHT22;48610;52.144;8.624;2023-09-08T10:08:27;26.00;99.90
62555;DHT22;48610;52.144;8.624;2023-09-08T10:11:31;26.20;99.90
62555;DHT22;48610;52.144;8.624;2023-09-08T10:14:41;26.30;99.90
62555;DHT22;48610;52.144;8.624;2023-09-08T10:17:44;26.60;99.90
62555;DHT22;48610;52.144;8.624;2023-09-08T10:20:46;26.80;99.30
62555;DHT22;48610;52.144;8.624;2023-09-08T10:24:18;26.80;99.00
62555;DHT22;48610;52.144;8.624;2023-09-08T10:27:23;26.90;99.90
62555;DHT22;48610;52.144;8.624;2023-09-08T10:30:24;27.00;99.90
62555;DHT22;48610;52.144;8.624;2023-09-08T10:33:25;27.10;99.90
62555;DHT22;48610;52.144;8.624;2023-09-08T10:36:27;27.10;98.70
62555;DHT22;48610;52.144;8.624;2023-09-08T10:39:34;27.20;99.40
62555;DHT22;48610;52.144;8.624;2023-09-08T10:42:40;27.50;99.20
62555;DHT22;48610;52.144;8.624;2023-09-08T10:45:41;27.50;98.80
62555;DHT22;48610;52.144;8.624;2023-09-08T10:48:43;27.60;99.10
62555;DHT22;48610;52.144;8.624;2023-09-08T10:51:44;27.70;98.20
62555;DHT22;48610;52.144;8.624;2023-09-08T10:54:49;27.90;98.60
62555;DHT22;48610;52.144;8.624;2023-09-08T10:57:54;28.00;99.10
62555;DHT22;48610;52.144;8.624;2023-09-08T11:00:59;28.00;98.50
62555;DHT22;48610;52.144;8.624;2023-09-08T11:04:04;28.20;96.00
62555;DHT22;48610;52.144;8.624;2023-09-08T11:07:09;28.20;96.50
62555;DHT22;48610;52.144;8.624;2023-09-08T11:10:11;28.30;96.10
62555;DHT22;48610;52.144;8.624;2023-09-08T11:13:12;28.50;97.40
62555;DHT22;48610;52.144;8.624;2023-09-08T11:16:16;28.60;96.20
62555;DHT22;48610;52.144;8.624;2023-09-08T11:19:21;29.00;96.40
62555;DHT22;48610;52.144;8.624;2023-09-08T11:22:24;28.90;96.30
62555;DHT22;48610;52.144;8.624;2023-09-08T11:25:25;28.90;96.60
62555;DHT22;48610;52.144;8.624;2023-09-08T11:28:26;29.10;95.80
62555;DHT22;48610;52.144;8.624;2023-09-08T11:31:27;29.20;96.70
62555;DHT22;48610;52.144;8.624;2023-09-08T11:34:28;29.50;98.40
62555;DHT22;48610;52.144;8.624;2023-09-08T11:37:29;29.70;95.80
62555;DHT22;48610;52.144;8.624;2023-09-08T11:40:30;29.60;94.70
62555;DHT22;48610;52.144;8.624;2023-09-08T11:43:31;29.30;94.00
62555;DHT22;48610;52.144;8.624;2023-09-08T11:46:33;29.20;94.90
62555;DHT22;48610;52.144;8.624;2023-09-08T11:49:38;29.40;95.30
62555;DHT22;48610;52.144;8.624;2023-09-08T11:52:39;29.60;95.00
62555;DHT22;48610;52.144;8.624;2023-09-08T11:55:41;29.60;94.80
62555;DHT22;48610;52.144;8.624;2023-09-08T11:58:42;29.70;93.80
62555;DHT22;48610;52.144;8.624;2023-09-08T12:01:43;29.90;94.30
62555;DHT22;48610;52.144;8.624;2023-09-08T12:04:45;29.80;92.60
62555;DHT22;48610;52.144;8.624;2023-09-08T12:07:45;29.80;94.90
62555;DHT22;48610;52.144;8.624;2023-09-08T12:10:46;29.80;93.00
62555;DHT22;48610;52.144;8.624;2023-09-08T12:13:47;29.60;95.40
62555;DHT22;48610;52.144;8.624;2023-09-08T12:16:47;29.90;94.80
62555;DHT22;48610;52.144;8.624;2023-09-08T12:19:48;30.10;93.70
62555;DHT22;48610;52.144;8.624;2023-09-08T12:22:49;30.00;94.30
62555;DHT22;48610;52.144;8.624;2023-09-08T12:25:52;30.00;93.40
62555;DHT22;48610;52.144;8.624;2023-09-08T12:28:53;29.70;95.00
62555;DHT22;48610;52.144;8.624;2023-09-08T12:31:53;29.90;93.10
62555;DHT22;48610;52.144;8.624;2023-09-08T12:34:54;30.10;93.90
62555;DHT22;48610;52.144;8.624;2023-09-08T12:38:03;30.10;93.00
62555;DHT22;48610;52.144;8.624;2023-09-08T12:41:05;30.30;93.80
62555;DHT22;48610;52.144;8.624;2023-09-08T12:44:06;30.40;92.90
62555;DHT22;48610;52.144;8.624;2023-09-08T12:47:08;30.70;91.40
62555;DHT22;48610;52.144;8.624;2023-09-08T12:50:09;30.40;91.60
62555;DHT22;48610;52.144;8.624;2023-09-08T12:53:10;30.50;91.80
62555;DHT22;48610;52.144;8.624;2023-09-08T12:56:11;30.60;92.50
62555;DHT22;48610;52.144;8.624;2023-09-08T12:59:11;30.50;93.10
62555;DHT22;48610;52.144;8.624;2023-09-08T13:02:12;30.40;94.70
62555;DHT22;48610;52.144;8.624;2023-09-08T13:05:13;30.60;92.70
62555;DHT22;48610;52.144;8.624;2023-09-08T13:08:13;30.60;92.60
62555;DHT22;48610;52.144;8.624;2023-09-08T13:11:15;30.70;93.20
62555;DHT22;48610;52.144;8.624;2023-09-08T13:14:16;30.70;90.90
62555;DHT22;48610;52.144;8.624;2023-09-08T13:17:16;30.40;91.90
62555;DHT22;48610;52.144;8.624;2023-09-08T13:20:17;30.10;90.90
62555;DHT22;48610;52.144;8.624;2023-09-08T13:23:18;30.00;92.00
62555;DHT22;48610;52.144;8.624;2023-09-08T13:26:18;30.00;91.80
62555;DHT22;48610;52.144;8.624;2023-09-08T13:29:19;30.10;91.50
62555;DHT22;48610;52.144;8.624;2023-09-08T13:32:20;30.30;91.90
62555;DHT22;48610;52.144;8.624;2023-09-08T13:35:21;30.10;91.70
62555;DHT22;48610;52.144;8.624;2023-09-08T13:38:21;30.40;90.50
62555;DHT22;48610;52.144;8.624;2023-09-08T13:41:22;30.40;92.60
62555;DHT22;48610;52.144;8.624;2023-09-08T13:44:24;30.60;91.10
62555;DHT22;48610;52.144;8.624;2023-09-08T13:47:25;30.80;91.60
62555;DHT22;48610;52.144;8.624;2023-09-08T13:50:25;30.70;90.50
62555;DHT22;48610;52.144;8.624;2023-09-08T13:53:26;30.60;90.90
62555;DHT22;48610;52.144;8.624;2023-09-08T13:56:27;30.60;91.40
62555;DHT22;48610;52.144;8.624;2023-09-08T13:59:31;30.60;90.30
62555;DHT22;48610;52.144;8.624;2023-09-08T14:02:32;30.60;88.60
62555;DHT22;48610;52.144;8.624;2023-09-08T14:05:32;30.60;91.30
62555;DHT22;48610;52.144;8.624;2023-09-08T14:08:33;30.40;91.40
62555;DHT22;48610;52.144;8.624;2023-09-08T14:11:33;30.50;91.80
62555;DHT22;48610;52.144;8.624;2023-09-08T14:14:34;30.80;89.30
62555;DHT22;48610;52.144;8.624;2023-09-08T14:17:34;30.70;91.50
62555;DHT22;48610;52.144;8.624;2023-09-08T14:20:35;30.70;90.80
62555;DHT22;48610;52.144;8.624;2023-09-08T14:23:36;30.60;92.40
62555;DHT22;48610;52.144;8.624;2023-09-08T14:26:38;30.60;91.60
62555;DHT22;48610;52.144;8.624;2023-09-08T14:29:39;30.40;91.00
62555;DHT22;48610;52.144;8.624;2023-09-08T14:32:39;30.30;90.00
62555;DHT22;48610;52.144;8.624;2023-09-08T14:35:43;30.30;89.10
62555;DHT22;48610;52.144;8.624;2023-09-08T14:38:45;30.40;90.10
62555;DHT22;48610;52.144;8.624;2023-09-08T14:41:45;30.40;90.20
62555;DHT22;48610;52.144;8.624;2023-09-08T14:44:46;30.10;88.90
62555;DHT22;48610;52.144;8.624;2023-09-08T14:47:46;30.20;90.80
62555;DHT22;48610;52.144;8.624;2023-09-08T14:50:47;30.10;90.60
62555;DHT22;48610;52.144;8.624;2023-09-08T14:53:48;30.20;90.10
62555;DHT22;48610;52.144;8.624;2023-09-08T14:56:48;30.20;91.00
62555;DHT22;48610;52.144;8.624;2023-09-08T14:59:49;30.20;92.00
62555;DHT22;48610;52.144;8.624;2023-09-08T15:02:50;29.90;90.30
62555;DHT22;48610;52.144;8.624;2023-09-08T15:05:50;30.00;91.30
62555;DHT22;48610;52.144;8.624;2023-09-08T15:08:51;29.90;90.10
62555;DHT22;48610;52.144;8.624;2023-09-08T15:11:52;29.80;90.50
62555;DHT22;48610;52.144;8.624;2023-09-08T15:14:52;29.70;90.70
62555;DHT22;48610;52.144;8.624;2023-09-08T15:17:53;29.60;91.40
62555;DHT22;48610;52.144;8.624;2023-09-08T15:20:55;29.60;93.50
62555;DHT22;48610;52.144;8.624;2023-09-08T15:23:56;29.60;93.00
62555;DHT22;48610;52.144;8.624;2023-09-08T15:26:56;29.40;90.30
62555;DHT22;48610;52.144;8.624;2023-09-08T15:30:00;29.50;91.40
62555;DHT22;48610;52.144;8.624;2023-09-08T15:33:04;29.40;90.60
62555;DHT22;48610;52.144;8.624;2023-09-08T15:36:06;29.50;91.20
62555;DHT22;48610;52.144;8.624;2023-09-08T15:39:07;29.50;90.60
62555;DHT22;48610;52.144;8.624;2023-09-08T15:42:08;29.40;90.00
62555;DHT22;48610;52.144;8.624;2023-09-08T15:45:08;29.30;91.00
62555;DHT22;48610;52.144;8.624;2023-09-08T15:48:10;29.30;90.50
62555;DHT22;48610;52.144;8.624;2023-09-08T15:51:10;29.20;91.50
62555;DHT22;48610;52.144;8.624;2023-09-08T15:54:11;29.10;91.40
62555;DHT22;48610;52.144;8.624;2023-09-08T15:57:12;29.10;91.10
62555;DHT22;48610;52.144;8.624;2023-09-08T16:00:13;29.10;91.50
62555;DHT22;48610;52.144;8.624;2023-09-08T16:03:14;29.20;92.70
62555;DHT22;48610;52.144;8.624;2023-09-08T16:06:15;29.10;91.80
62555;DHT22;48610;52.144;8.624;2023-09-08T16:09:18;29.00;92.10
62555;DHT22;48610;52.144;8.624;2023-09-08T16:12:19;29.10;92.60
62555;DHT22;48610;52.144;8.624;2023-09-08T16:15:19;29.10;91.60
62555;DHT22;48610;52.144;8.624;2023-09-08T16:18:20;28.90;92.70
62555;DHT22;48610;52.144;8.624;2023-09-08T16:21:21;28.80;92.40
62555;DHT22;48610;52.144;8.624;2023-09-08T16:24:21;28.60;92.50
62555;DHT22;48610;52.144;8.624;2023-09-08T16:27:22;28.50;92.20
62555;DHT22;48610;52.144;8.624;2023-09-08T16:30:23;28.50;92.60
62555;DHT22;48610;52.144;8.624;2023-09-08T16:33:23;28.50;92.70
62555;DHT22;48610;52.144;8.624;2023-09-08T16:36:24;28.40;92.40
62555;DHT22;48610;52.144;8.624;2023-09-08T16:39:24;28.40;93.00
62555;DHT22;48610;52.144;8.624;2023-09-08T16:42:25;28.30;93.20
62555;DHT22;48610;52.144;8.624;2023-09-08T16:45:25;28.20;94.10
62555;DHT22;48610;52.144;8.624;2023-09-08T16:48:26;28.10;93.70
62555;DHT22;48610;52.144;8.624;2023-09-08T16:51:27;28.00;94.30
62555;DHT22;48610;52.144;8.624;2023-09-08T16:54:27;28.10;94.00
62555;DHT22;48610;52.144;8.624;2023-09-08T16:57:28;28.00;94.30
62555;DHT22;48610;52.144;8.624;2023-09-08T17:00:28;28.00;94.30
62555;DHT22;48610;52.144;8.624;2023-09-08T17:03:29;27.90;95.30
62555;DHT22;48610;52.144;8.624;2023-09-08T17:06:30;27.80;93.90
62555;DHT22;48610;52.144;8.624;2023-09-08T17:09:30;27.80;94.30
62555;DHT22;48610;52.144;8.624;2023-09-08T17:12:31;27.70;94.70
62555;DHT22;48610;52.144;8.624;2023-09-08T17:15:32;27.60;95.00
62555;DHT22;48610;52.144;8.624;2023-09-08T17:18:32;27.40;95.30
62555;DHT22;48610;52.144;8.624;2023-09-08T17:21:33;27.40;95.40
62555;DHT22;48610;52.144;8.624;2023-09-08T17:24:34;27.20;95.80
62555;DHT22;48610;52.144;8.624;2023-09-08T17:27:34;27.10;96.10
62555;DHT22;48610;52.144;8.624;2023-09-08T17:30:35;27.00;96.50
62555;DHT22;48610;52.144;8.624;2023-09-08T17:33:35;26.90;96.50
62555;DHT22;48610;52.144;8.624;2023-09-08T17:36:36;26.80;97.00
62555;DHT22;48610;52.144;8.624;2023-09-08T17:39:36;26.70;97.20
62555;DHT22;48610;52.144;8.624;2023-09-08T17:42:37;26.70;97.20
62555;DHT22;48610;52.144;8.624;2023-09-08T17:45:38;26.60;97.40
62555;DHT22;48610;52.144;8.624;2023-09-08T17:48:40;26.50;97.40
62555;DHT22;48610;52.144;8.624;2023-09-08T17:51:40;26.20;97.80
62555;DHT22;48610;52.144;8.624;2023-09-08T17:54:41;26.20;97.50
62555;DHT22;48610;52.144;8.624;2023-09-08T17:57:42;26.10;98.00
62555;DHT22;48610;52.144;8.624;2023-09-08T18:00:42;26.00;98.30
62555;DHT22;48610;52.144;8.624;2023-09-08T18:03:46;25.80;98.60
62555;DHT22;48610;52.144;8.624;2023-09-08T18:06:49;25.70;99.30
62555;DHT22;48610;52.144;8.624;2023-09-08T18:09:50;25.50;99.20
62555;DHT22;48610;52.144;8.624;2023-09-08T18:12:51;25.40;99.70
62555;DHT22;48610;52.144;8.624;2023-09-08T18:15:58;25.20;99.90
62555;DHT22;48610;52.144;8.624;2023-09-08T18:18:59;25.10;99.90
62555;DHT22;48610;52.144;8.624;2023-09-08T18:22:04;25.00;99.90
62555;DHT22;48610;52.144;8.624;2023-09-08T18:25:05;24.90;99.90
62555;DHT22;48610;52.144;8.624;2023-09-08T18:28:07;24.80;99.90
62555;DHT22;48610;52.144;8.624;2023-09-08T18:31:08;24.60;99.90
62555;DHT22;48610;52.144;8.624;2023-09-08T18:34:08;24.60;99.90
62555;DHT22;48610;52.144;8.624;2023-09-08T18:37:09;24.60;99.90
62555;DHT22;48610;52.144;8.624;2023-09-08T18:40:10;24.40;99.90
62555;DHT22;48610;52.144;8.624;2023-09-08T18:43:13;24.30;99.90
62555;DHT22;48610;52.144;8.624;2023-09-08T18:46:14;24.20;99.90
62555;DHT22;48610;52.144;8.624;2023-09-08T18:49:15;24.10;99.90
62555;DHT22;48610;52.144;8.624;2023-09-08T18:52:16;24.00;99.90
62555;DHT22;48610;52.144;8.624;2023-09-08T18:55:16;23.90;99.90
62555;DHT22;48610;52.144;8.624;2023-09-08T18:58:17;23.80;99.90
62555;DHT22;48610;52.144;8.624;2023-09-08T19:01:18;23.80;99.90
62555;DHT22;48610;52.144;8.624;2023-09-08T19:04:18;23.70;99.90
62555;DHT22;48610;52.144;8.624;2023-09-08T19:07:19;23.60;99.90